Time;durP1;ratioP1;P1;durP2;ratioP2;P2;SDS_P1;SDS_P2;PMS_P1;PMS_P2;Temp;Humidity;BMP_temperature;BMP_pressure;BME280_temperature;BME280_humidity;BME280_pressure;Samples;Min_cycle;Max_cycle;Signal;HPM_P1;HPM_P2
2023/05/15 00:01:20;;;;;;;330.63;311.57;;;8.60;74.40;;;;;;5010714;28;20431;-69
2023/05/15 00:03:46;;;;;;;366.30;346.17;;;8.60;73.90;;;;;;5011022;28;20457;-69
2023/05/15 00:06:11;;;;;;;383.53;362.00;;;8.50;74.30;;;;;;5009319;28;20793;-69
2023/05/15 00:08:37;;;;;;;376.20;354.53;;;8.60;74.70;;;;;;5005912;28;20429;-69
2023/05/15 00:11:03;;;;;;;310.13;292.23;;;8.50;74.60;;;;;;5010426;28;20232;-69
2023/05/15 00:13:29;;;;;;;347.37;327.73;;;8.50;74.70;;;;;;5010581;28;20652;-69
2023/05/15 00:15:54;;;;;;;324.73;305.80;;;8.50;74.30;;;;;;5014008;28;20221;-69
2023/05/15 00:18:20;;;;;;;343.70;324.20;;;8.50;73.00;;;;;;5014038;28;20438;-69
2023/05/15 00:20:45;;;;;;;419.60;396.57;;;8.40;73.40;;;;;;5013885;28;20194;-69
2023/05/15 00:23:11;;;;;;;398.07;373.83;;;8.40;72.90;;;;;;5011955;28;20179;-69
2023/05/15 00:25:36;;;;;;;336.13;317.10;;;8.30;73.20;;;;;;5013948;28;20292;-69
2023/05/15 00:28:02;;;;;;;402.63;380.53;;;8.30;72.90;;;;;;5014197;28;20583;-69
2023/05/15 00:30:28;;;;;;;329.00;310.50;;;8.20;73.10;;;;;;5013858;28;20189;-69
2023/05/15 00:32:53;;;;;;;332.10;312.20;;;8.20;72.60;;;;;;5013443;28;20598;-69
2023/05/15 00:35:19;;;;;;;331.97;312.90;;;8.10;72.00;;;;;;5013722;28;20260;-69
2023/05/15 00:37:44;;;;;;;483.37;454.20;;;8.00;72.10;;;;;;5013845;28;20200;-69
2023/05/15 00:40:17;;;;;;;282.77;265.67;;;8.00;72.80;;;;;;5013955;28;20198;-69
2023/05/15 00:42:43;;;;;;;274.93;257.10;;;8.00;73.00;;;;;;5012350;28;20612;-69
2023/05/15 00:45:10;;;;;;;380.17;358.50;;;8.00;71.90;;;;;;5013548;28;20531;-70
2023/05/15 00:47:37;;;;;;;293.27;275.80;;;7.90;72.00;;;;;;5013296;28;20841;-70
2023/05/15 00:50:03;;;;;;;283.03;265.57;;;7.80;72.50;;;;;;5013686;28;20422;-69
2023/05/15 00:52:29;;;;;;;297.43;279.70;;;7.80;73.70;;;;;;5011893;28;20527;-69
2023/05/15 00:54:55;;;;;;;304.40;285.97;;;7.80;74.50;;;;;;5013524;28;20972;-69
2023/05/15 00:57:22;;;;;;;339.43;319.87;;;7.90;74.20;;;;;;5013343;28;20444;-69
2023/05/15 00:59:49;;;;;;;345.17;325.23;;;7.90;74.50;;;;;;5011688;28;20584;-69
2023/05/15 01:02:16;;;;;;;306.23;288.13;;;7.90;72.90;;;;;;5012946;28;20443;-69
2023/05/15 01:04:41;;;;;;;337.60;317.40;;;7.90;73.60;;;;;;5014596;28;20546;-69
2023/05/15 01:07:07;;;;;;;303.63;285.93;;;7.90;72.10;;;;;;5014914;28;20511;-69
2023/05/15 01:09:34;;;;;;;297.50;279.50;;;7.90;73.40;;;;;;5014798;28;20237;-69
2023/05/15 01:12:03;;;;;;;296.93;278.47;;;7.80;72.70;;;;;;5013278;28;20209;-69
2023/05/15 01:14:28;;;;;;;284.83;267.53;;;7.80;72.70;;;;;;5013139;28;20460;-69
2023/05/15 01:16:54;;;;;;;273.40;255.20;;;7.80;73.30;;;;;;5013006;28;20546;-69
2023/05/15 01:19:20;;;;;;;366.00;344.90;;;7.80;73.90;;;;;;5012750;28;20214;-69
2023/05/15 01:22:13;;;;;;;369.97;349.03;;;7.90;76.00;;;;;;5012631;28;20190;-70
2023/05/15 01:25:10;;;;;;;327.43;308.07;;;7.90;74.70;;;;;;5012246;28;20718;-69
2023/05/15 01:27:42;;;;;;;553.70;518.20;;;8.00;75.40;;;;;;4926141;28;20442;-69
2023/05/15 01:30:26;;;;;;;301.97;284.70;;;8.20;76.00;;;;;;5003814;28;20468;-69
2023/05/15 01:33:03;;;;;;;327.80;308.20;;;8.20;75.70;;;;;;5011832;28;20433;-70
2023/05/15 01:35:31;;;;;;;419.03;395.33;;;8.30;75.70;;;;;;5010899;28;20493;-69
2023/05/15 01:38:07;;;;;;;371.63;351.30;;;8.30;75.00;;;;;;5012168;28;20458;-69
2023/05/15 01:40:33;;;;;;;352.23;330.60;;;8.40;75.60;;;;;;5012493;28;20437;-69
2023/05/15 01:43:06;;;;;;;419.23;396.53;;;8.40;75.00;;;;;;5011883;28;20429;-70
2023/05/15 01:45:32;;;;;;;484.13;454.07;;;8.50;75.00;;;;;;5011032;28;20452;-69
2023/05/15 01:48:00;;;;;;;377.10;355.27;;;8.50;75.00;;;;;;5012269;28;20529;-69
2023/05/15 01:50:28;;;;;;;390.57;369.00;;;8.60;75.20;;;;;;5012808;28;20417;-69
2023/05/15 01:52:57;;;;;;;401.97;380.23;;;8.60;75.80;;;;;;5010870;28;20438;-70
2023/05/15 01:55:24;;;;;;;368.87;348.47;;;8.70;76.10;;;;;;5007241;28;20493;-69
2023/05/15 01:57:51;;;;;;;399.03;376.90;;;8.80;74.40;;;;;;5011155;28;20859;-69
2023/05/15 02:00:17;;;;;;;448.07;422.60;;;8.80;74.80;;;;;;5011893;28;20438;-69
2023/05/15 02:02:44;;;;;;;382.23;360.83;;;8.80;73.10;;;;;;5011903;28;20831;-69
2023/05/15 02:05:11;;;;;;;341.47;321.30;;;8.80;74.60;;;;;;5012164;28;20477;-69
2023/05/15 02:07:37;;;;;;;402.87;380.77;;;8.90;74.30;;;;;;5011973;28;20431;-70
2023/05/15 02:10:03;;;;;;;375.80;354.93;;;8.90;74.10;;;;;;5012477;28;20427;-69
2023/05/15 02:12:30;;;;;;;399.53;377.07;;;9.00;73.20;;;;;;5011759;28;20183;-70
2023/05/15 02:14:57;;;;;;;436.03;412.13;;;9.10;73.10;;;;;;5011982;28;20460;-69
2023/05/15 02:17:23;;;;;;;318.27;298.27;;;9.10;71.40;;;;;;5012224;28;20435;-69
2023/05/15 02:19:49;;;;;;;322.17;303.30;;;9.10;71.40;;;;;;5013056;28;20429;-70
2023/05/15 02:22:15;;;;;;;442.23;417.20;;;9.20;71.50;;;;;;5012409;28;20560;-69
2023/05/15 02:24:40;;;;;;;293.53;275.93;;;9.20;71.50;;;;;;5011525;28;20466;-69
2023/05/15 02:27:16;;;;;;;354.43;334.10;;;9.20;70.30;;;;;;5011860;28;20202;-69
2023/05/15 02:29:44;;;;;;;373.27;352.83;;;9.30;69.90;;;;;;5011956;28;20210;-69
2023/05/15 02:32:28;;;;;;;279.03;262.07;;;9.30;69.30;;;;;;5011683;28;20431;-69
2023/05/15 02:35:12;;;;;;;363.17;343.07;;;9.40;68.30;;;;;;5011926;28;20468;-69
2023/05/15 02:37:40;;;;;;;310.50;292.37;;;9.30;68.20;;;;;;5012421;28;20437;-70
2023/05/15 02:40:12;;;;;;;299.27;281.23;;;9.40;66.70;;;;;;5015998;28;20889;-69
2023/05/15 02:42:39;;;;;;;324.67;305.53;;;9.40;67.60;;;;;;5015539;28;20438;-69
2023/05/15 02:45:06;;;;;;;282.33;265.00;;;9.40;65.90;;;;;;5015758;28;20481;-69
2023/05/15 02:47:33;;;;;;;356.83;335.93;;;9.50;66.60;;;;;;5015495;28;20426;-69
2023/05/15 02:50:00;;;;;;;311.37;292.37;;;9.50;66.20;;;;;;5014274;28;20429;-70
2023/05/15 02:52:25;;;;;;;330.23;310.23;;;9.40;66.70;;;;;;5015548;28;20423;-69
2023/05/15 02:54:52;;;;;;;295.30;277.50;;;9.50;66.50;;;;;;5015276;28;20546;-69
2023/05/15 02:57:17;;;;;;;310.80;292.10;;;9.50;66.60;;;;;;5015439;28;20847;-70
2023/05/15 02:59:43;;;;;;;368.13;346.90;;;9.50;66.60;;;;;;5015466;28;20978;-69
2023/05/15 03:02:09;;;;;;;318.73;299.70;;;9.50;66.80;;;;;;5015266;28;20184;-69
2023/05/15 03:04:35;;;;;;;310.80;292.57;;;9.50;66.30;;;;;;5015397;28;20497;-70
2023/05/15 03:07:00;;;;;;;300.43;282.73;;;9.60;66.90;;;;;;5015397;28;20530;-69
2023/05/15 03:09:26;;;;;;;362.83;342.73;;;9.60;66.80;;;;;;5014691;28;20186;-69
2023/05/15 03:11:51;;;;;;;316.03;296.77;;;9.60;66.90;;;;;;5015108;28;20668;-69
2023/05/15 03:14:17;;;;;;;348.60;328.10;;;9.60;67.30;;;;;;5015249;28;20318;-69
2023/05/15 03:16:42;;;;;;;316.27;297.40;;;9.70;66.80;;;;;;5015278;28;20199;-70
2023/05/15 03:19:08;;;;;;;321.00;302.00;;;9.70;66.60;;;;;;5013537;28;20187;-69
2023/05/15 03:21:36;;;;;;;304.37;286.43;;;9.70;66.40;;;;;;5014905;28;20184;-69
2023/05/15 03:24:02;;;;;;;322.53;303.43;;;9.70;65.40;;;;;;5014885;28;20219;-69
2023/05/15 03:26:27;;;;;;;336.00;315.30;;;9.70;65.60;;;;;;5015119;28;20581;-70
2023/05/15 03:28:54;;;;;;;363.30;342.30;;;9.70;64.70;;;;;;5014701;28;20242;-69
2023/05/15 03:31:20;;;;;;;381.40;358.33;;;9.60;64.10;;;;;;5014939;28;20175;-70
2023/05/15 03:33:48;;;;;;;295.07;276.73;;;9.60;65.00;;;;;;5014212;28;20676;-69
2023/05/15 03:36:14;;;;;;;339.80;319.17;;;9.50;65.90;;;;;;5013476;28;20215;-69
2023/05/15 03:38:40;;;;;;;347.37;325.83;;;9.50;66.20;;;;;;5014713;28;20443;-69
2023/05/15 03:41:05;;;;;;;337.27;317.03;;;9.50;66.00;;;;;;5014448;28;20546;-70
2023/05/15 03:43:31;;;;;;;332.33;312.67;;;9.50;66.80;;;;;;5013257;28;20219;-70
2023/05/15 03:45:58;;;;;;;339.10;318.90;;;9.50;67.00;;;;;;5013140;28;20215;-70
2023/05/15 03:48:23;;;;;;;319.73;300.73;;;9.50;67.20;;;;;;5013682;28;20659;-69
2023/05/15 03:50:51;;;;;;;336.53;316.97;;;9.50;66.30;;;;;;5013109;28;20435;-69
2023/05/15 03:53:16;;;;;;;404.87;382.27;;;9.60;65.90;;;;;;5011160;28;20176;-69
2023/05/15 03:55:42;;;;;;;360.07;338.37;;;9.60;66.00;;;;;;5012951;28;20820;-70
2023/05/15 03:58:07;;;;;;;326.23;307.27;;;9.60;66.00;;;;;;5014542;28;20559;-70
2023/05/15 04:00:33;;;;;;;375.60;353.00;;;9.60;66.20;;;;;;5014462;28;20184;-70
2023/05/15 04:02:58;;;;;;;329.27;309.33;;;9.70;65.90;;;;;;5014170;28;20601;-69
2023/05/15 04:05:24;;;;;;;316.20;297.67;;;9.70;66.10;;;;;;5013540;28;20583;-68
2023/05/15 04:07:49;;;;;;;373.10;350.23;;;9.70;65.90;;;;;;5014063;28;20661;-68
2023/05/15 04:10:15;;;;;;;304.10;284.43;;;9.70;65.10;;;;;;5014509;28;20291;-68
2023/05/15 04:12:40;;;;;;;385.80;363.40;;;9.70;65.60;;;;;;5014050;28;20190;-68
2023/05/15 04:15:23;;;;;;;382.97;361.17;;;9.80;65.30;;;;;;5013447;28;20211;-68
2023/05/15 04:17:51;;;;;;;339.90;320.60;;;9.80;65.80;;;;;;5014163;28;20188;-68
2023/05/15 04:20:21;;;;;;;358.27;336.17;;;9.90;65.50;;;;;;5014049;28;20434;-68
2023/05/15 04:22:46;;;;;;;345.07;324.97;;;9.90;65.30;;;;;;5014426;28;20438;-68
2023/05/15 04:25:13;;;;;;;321.30;302.10;;;9.90;64.90;;;;;;5015152;28;20466;-68
2023/05/15 04:27:40;;;;;;;315.10;296.63;;;10.00;64.00;;;;;;5015727;28;20204;-68
2023/05/15 04:30:06;;;;;;;456.47;429.23;;;10.10;63.30;;;;;;5014446;28;20521;-68
2023/05/15 04:32:35;;;;;;;320.27;301.43;;;10.20;64.50;;;;;;5012690;28;20943;-68
2023/05/15 04:35:08;;;;;;;319.23;300.07;;;10.30;62.50;;;;;;5025239;23;20464;-70
2023/05/15 04:37:38;;;;;;;315.10;295.60;;;10.30;61.40;;;;;;5015705;28;20474;-72
2023/05/15 04:40:05;;;;;;;371.87;349.20;;;10.30;63.10;;;;;;5004984;28;20486;-70
2023/05/15 04:42:31;;;;;;;370.97;349.17;;;10.40;60.50;;;;;;5027810;28;20420;-69
2023/05/15 04:44:56;;;;;;;348.97;327.87;;;10.40;59.70;;;;;;5010147;28;20479;-70
2023/05/15 04:47:22;;;;;;;386.03;364.20;;;10.50;61.20;;;;;;4993709;28;20176;-70
2023/05/15 04:49:48;;;;;;;343.80;323.83;;;10.60;60.00;;;;;;4994456;28;20191;-70
2023/05/15 04:52:14;;;;;;;380.57;357.70;;;10.60;59.20;;;;;;4994768;28;20172;-70
2023/05/15 04:54:40;;;;;;;420.00;394.47;;;10.60;60.00;;;;;;4993066;28;20447;-70
2023/05/15 04:57:07;;;;;;;372.57;349.07;;;10.70;60.70;;;;;;4995184;28;20490;-70
2023/05/15 04:59:32;;;;;;;449.17;420.43;;;10.80;60.60;;;;;;4995025;28;20560;-73
2023/05/15 05:01:58;;;;;;;366.30;343.70;;;10.90;61.00;;;;;;4994062;28;20511;-70
2023/05/15 05:04:23;;;;;;;367.50;345.10;;;11.00;59.40;;;;;;4995063;28;20212;-70
2023/05/15 05:06:49;;;;;;;408.57;385.73;;;11.20;57.30;;;;;;4995677;28;20205;-70
2023/05/15 05:09:15;;;;;;;338.47;318.37;;;11.20;57.20;;;;;;4995787;28;20183;-70
2023/05/15 05:11:43;;;;;;;332.33;311.67;;;11.30;55.80;;;;;;4996056;28;20220;-70
2023/05/15 05:14:10;;;;;;;393.07;369.63;;;11.30;57.50;;;;;;4994539;28;20194;-71
2023/05/15 05:16:36;;;;;;;335.50;316.00;;;11.40;56.00;;;;;;4994557;28;20461;-70
2023/05/15 05:19:01;;;;;;;349.60;328.33;;;11.50;54.80;;;;;;4993737;28;20833;-70
2023/05/15 05:21:27;;;;;;;379.17;357.83;;;11.60;54.70;;;;;;4992374;28;20971;-70
2023/05/15 05:23:52;;;;;;;435.57;408.73;;;11.70;53.80;;;;;;4993341;28;20638;-71
2023/05/15 05:26:18;;;;;;;363.33;340.87;;;11.90;53.20;;;;;;4993933;28;20235;-70
2023/05/15 05:28:43;;;;;;;493.43;462.20;;;12.00;50.90;;;;;;4993700;28;20183;-70
2023/05/15 05:31:09;;;;;;;450.63;422.17;;;12.20;50.90;;;;;;4993392;28;20653;-70
2023/05/15 05:33:35;;;;;;;456.00;426.50;;;12.30;51.30;;;;;;4991699;28;20183;-70
2023/05/15 05:36:00;;;;;;;371.33;349.07;;;12.30;49.80;;;;;;4991866;28;20219;-70
2023/05/15 05:38:26;;;;;;;461.87;433.57;;;12.50;50.00;;;;;;4992794;28;20279;-71
2023/05/15 05:40:52;;;;;;;440.17;412.97;;;12.80;50.00;;;;;;4990936;28;20185;-70
2023/05/15 05:43:19;;;;;;;356.73;335.60;;;13.00;48.20;;;;;;4984922;28;20184;-71
2023/05/15 05:45:45;;;;;;;446.07;417.27;;;13.20;47.70;;;;;;4993057;28;20509;-70
2023/05/15 05:48:12;;;;;;;333.10;312.40;;;13.50;46.50;;;;;;4976576;28;20507;-70
2023/05/15 05:50:38;;;;;;;468.10;440.00;;;13.80;45.40;;;;;;4973487;28;20408;-70
2023/05/15 05:53:03;;;;;;;593.23;557.73;;;14.10;41.30;;;;;;4988122;28;20548;-71
2023/05/15 05:55:29;;;;;;;695.57;647.97;;;14.40;39.10;;;;;;4976862;28;20211;-70
2023/05/15 05:57:54;;;;;;;477.73;447.77;;;14.70;38.00;;;;;;4992908;28;20185;-71
2023/05/15 06:00:20;;;;;;;747.90;697.67;;;15.00;36.40;;;;;;4990290;28;20208;-70
2023/05/15 06:02:46;;;;;;;592.20;552.90;;;15.30;33.70;;;;;;4987998;28;20298;-70
2023/05/15 06:05:12;;;;;;;788.43;733.70;;;15.60;30.90;;;;;;4971829;28;20217;-71
2023/05/15 06:07:38;;;;;;;592.60;553.80;;;15.60;31.00;;;;;;4973448;28;20440;-71
2023/05/15 06:10:04;;;;;;;546.37;512.30;;;15.80;29.50;;;;;;4980271;28;20502;-71
2023/05/15 06:12:29;;;;;;;622.90;580.47;;;15.90;26.90;;;;;;4991066;28;20239;-70
2023/05/15 06:14:55;;;;;;;713.90;664.80;;;16.00;27.90;;;;;;4992361;28;20440;-71
2023/05/15 06:17:20;;;;;;;541.53;509.23;;;16.00;27.90;;;;;;4992615;28;20204;-71
2023/05/15 06:19:46;;;;;;;707.20;659.40;;;16.20;26.80;;;;;;4992552;28;20220;-70
2023/05/15 06:22:11;;;;;;;721.63;670.30;;;16.50;27.10;;;;;;4992416;28;20175;-71
2023/05/15 06:24:37;;;;;;;495.00;465.60;;;16.80;26.20;;;;;;4993981;28;20204;-71
2023/05/15 06:27:02;;;;;;;810.40;750.33;;;17.10;24.40;;;;;;4991938;28;20177;-70
2023/05/15 06:29:28;;;;;;;685.63;638.63;;;17.20;25.80;;;;;;4992767;28;20172;-71
2023/05/15 06:31:54;;;;;;;744.30;695.13;;;17.50;24.60;;;;;;4992593;28;20256;-71
2023/05/15 06:34:19;;;;;;;649.30;607.33;;;17.50;27.10;;;;;;4992840;28;20220;-71
2023/05/15 06:36:45;;;;;;;677.90;632.03;;;;;;;;;;4990894;28;20646;-72
2023/05/15 06:39:10;;;;;;;701.83;651.30;;;18.00;10.20;;;;;;4989224;28;20192;-72
2023/05/15 06:41:37;;;;;;;760.77;707.27;;;18.30;9.60;;;;;;4991462;28;20461;-71
2023/05/15 06:44:03;;;;;;;604.40;561.37;;;18.30;10.00;;;;;;4991117;28;20197;-72
2023/05/15 06:46:28;;;;;;;556.97;524.53;;;18.30;10.00;;;;;;4988836;28;20534;-71
2023/05/15 06:48:54;;;;;;;527.33;494.47;;;18.50;9.70;;;;;;4990236;28;20507;-71
2023/05/15 06:51:19;;;;;;;580.53;543.00;;;18.50;9.50;;;;;;4990031;28;20708;-71
2023/05/15 06:53:45;;;;;;;672.43;626.73;;;18.70;9.10;;;;;;4988202;28;20258;-71
2023/05/15 06:56:10;;;;;;;612.10;573.07;;;19.10;8.10;;;;;;4986898;28;20215;-73
2023/05/15 06:58:36;;;;;;;638.10;595.40;;;18.10;15.00;;;;;;4986352;28;20187;-71
2023/05/15 07:01:02;;;;;;;573.47;537.60;;;17.80;13.00;;;;;;4988176;28;20176;-70
2023/05/15 07:03:29;;;;;;;860.03;794.20;;;18.20;13.00;;;;;;4987513;28;20232;-71
2023/05/15 07:05:54;;;;;;;603.53;564.47;;;18.50;11.10;;;;;;4986872;28;20444;-71
2023/05/15 07:08:20;;;;;;;642.53;600.83;;;18.70;9.60;;;;;;4986259;28;20849;-71
2023/05/15 07:10:45;;;;;;;730.93;675.80;;;18.60;9.80;;;;;;4985290;28;20185;-72
2023/05/15 07:13:11;;;;;;;594.67;555.43;;;19.20;9.60;;;;;;4986752;28;20657;-71
2023/05/15 07:15:36;;;;;;;594.93;555.57;;;18.30;10.00;;;;;;4990731;28;20200;-73
2023/05/15 07:18:02;;;;;;;631.53;592.37;;;18.20;10.40;;;;;;4991960;28;20188;-72
2023/05/15 07:20:28;;;;;;;782.87;724.07;;;18.20;10.80;;;;;;4992112;28;20261;-72
2023/05/15 07:22:53;;;;;;;574.40;538.27;;;18.80;10.30;;;;;;4991654;28;20185;-72
2023/05/15 07:25:19;;;;;;;604.63;563.00;;;19.00;8.40;;;;;;4993682;28;20307;-73
2023/05/15 07:27:44;;;;;;;773.90;714.87;;;19.40;8.40;;;;;;4995400;28;20188;-73
2023/05/15 07:30:10;;;;;;;610.20;570.70;;;19.90;9.20;;;;;;4995469;28;20231;-73
2023/05/15 07:32:36;;;;;;;569.97;535.03;;;19.90;7.50;;;;;;4995453;28;20181;-72
2023/05/15 07:35:03;;;;;;;572.70;536.33;;;19.80;7.40;;;;;;4995345;28;20471;-73
2023/05/15 07:37:29;;;;;;;553.03;518.60;;;19.70;8.00;;;;;;4995272;28;20173;-72
2023/05/15 07:39:55;;;;;;;583.63;547.47;;;20.30;8.10;;;;;;4995132;28;20523;-71
2023/05/15 07:42:21;;;;;;;627.33;586.77;;;20.10;8.00;;;;;;4994653;28;20420;-72
2023/05/15 07:44:46;;;;;;;586.77;548.03;;;19.70;8.40;;;;;;4995129;28;20662;-72
2023/05/15 07:47:12;;;;;;;750.47;695.90;;;20.00;7.60;;;;;;4994942;28;20520;-72
2023/05/15 07:49:37;;;;;;;590.70;553.67;;;20.00;7.20;;;;;;4993654;28;20181;-72
2023/05/15 07:52:03;;;;;;;675.17;629.80;;;19.90;7.50;;;;;;4993267;28;20601;-72
2023/05/15 07:54:30;;;;;;;627.53;586.53;;;20.30;7.60;;;;;;4993783;28;20554;-71
2023/05/15 07:56:57;;;;;;;573.67;538.47;;;20.60;7.40;;;;;;4994717;28;20197;-71
2023/05/15 07:59:23;;;;;;;703.00;652.83;;;20.60;9.10;;;;;;4994744;28;20482;-72
2023/05/15 08:01:48;;;;;;;567.30;531.63;;;21.40;1.00;;;;;;4994352;28;20427;-71
2023/05/15 08:04:14;;;;;;;707.63;657.63;;;21.80;1.00;;;;;;4994614;28;20261;-72
2023/05/15 08:06:41;;;;;;;688.70;639.93;;;22.40;1.00;;;;;;4993394;28;20205;-72
2023/05/15 08:09:08;;;;;;;601.07;562.50;;;;;;;;;;4994529;28;20173;-72
2023/05/15 08:11:33;;;;;;;652.60;606.43;;;24.60;1.00;;;;;;4994037;28;20416;-70
2023/05/15 08:13:59;;;;;;;684.47;634.70;;;24.30;1.00;;;;;;4994441;28;20428;-72
2023/05/15 08:16:25;;;;;;;578.07;541.90;;;;;;;;;;4992779;28;20205;-70
2023/05/15 08:18:57;;;;;;;625.97;583.83;;;25.90;1.00;;;;;;4975068;28;20205;-71
2023/05/15 08:21:23;;;;;;;567.10;529.63;;;26.40;1.00;;;;;;4974822;28;20416;-70
2023/05/15 08:23:49;;;;;;;653.57;607.97;;;;;;;;;;4974492;28;20823;-70
2023/05/15 08:26:14;;;;;;;641.60;595.90;;;30.10;1.00;;;;;;4974562;28;20193;-70
2023/05/15 08:28:40;;;;;;;646.30;601.00;;;29.40;1.00;;;;;;4974612;28;20424;-71
2023/05/15 08:31:05;;;;;;;665.53;615.00;;;30.50;1.00;;;;;;4973362;28;20263;-71
2023/05/15 08:33:31;;;;;;;625.77;580.67;;;32.60;1.00;;;;;;4974306;28;20268;-70
2023/05/15 08:35:57;;;;;;;680.10;630.77;;;31.00;1.00;;;;;;4974233;28;20272;-70
2023/05/15 08:38:22;;;;;;;706.70;649.87;;;31.30;1.00;;;;;;4973151;28;20181;-70
2023/05/15 08:40:51;;;;;;;564.33;524.70;;;30.50;1.00;;;;;;4973075;28;20444;-70
2023/05/15 08:43:19;;;;;;;594.33;549.00;;;30.90;1.00;;;;;;4972860;28;20263;-71
2023/05/15 08:45:45;;;;;;;638.67;593.17;;;32.90;1.00;;;;;;4974405;28;20448;-71
2023/05/15 08:48:13;;;;;;;664.53;616.60;;;;;;;;;;4974787;28;20412;-71
2023/05/15 08:50:39;;;;;;;687.57;637.23;;;;;;;;;;4974436;28;20177;-75
2023/05/15 08:53:05;;;;;;;627.70;584.87;;;;;;;;;;4974074;28;20409;-71
2023/05/15 08:55:31;;;;;;;687.03;637.83;;;31.80;1.00;;;;;;4974481;28;20472;-71
2023/05/15 08:57:58;;;;;;;665.13;613.50;;;32.20;1.00;;;;;;4973922;28;20457;-70
2023/05/15 09:00:25;;;;;;;606.53;567.63;;;29.50;1.00;;;;;;4974086;28;20602;-71
2023/05/15 09:02:52;;;;;;;713.77;660.73;;;27.00;1.00;;;;;;4973812;28;20940;-69
2023/05/15 09:05:18;;;;;;;701.03;650.67;;;24.90;1.00;;;;;;4976577;28;20469;-71
2023/05/15 09:07:46;;;;;;;871.73;795.53;;;24.80;1.00;;;;;;4989206;28;20428;-70
2023/05/15 09:10:12;;;;;;;965.50;878.67;;;23.50;1.00;;;;;;4989082;28;20177;-70
2023/05/15 09:12:42;;;;;;;789.77;727.17;;;23.40;1.00;;;;;;4989329;28;20416;-70
2023/05/15 09:15:12;;;;;;;801.10;737.27;;;23.20;1.00;;;;;;4989949;28;20505;-70
2023/05/15 09:17:39;;;;;;;766.47;706.80;;;22.80;1.00;;;;;;4988041;28;21159;-70
2023/05/15 09:20:05;;;;;;;670.03;623.30;;;23.30;1.00;;;;;;4988873;28;20427;-70
2023/05/15 09:22:35;;;;;;;836.87;767.60;;;23.40;1.00;;;;;;4989515;28;20428;-70
2023/05/15 09:25:03;;;;;;;688.77;640.17;;;23.10;1.00;;;;;;4989491;28;20463;-70
2023/05/15 09:27:29;;;;;;;673.53;626.57;;;22.00;1.00;;;;;;4987714;28;20439;-70
2023/05/15 09:29:55;;;;;;;740.00;682.13;;;21.10;1.00;;;;;;4987885;28;20507;-70
2023/05/15 09:32:21;;;;;;;873.27;801.40;;;20.70;1.00;;;;;;4988063;28;20514;-70
2023/05/15 09:34:46;;;;;;;615.30;576.17;;;20.80;1.00;;;;;;4988650;28;20514;-70
2023/05/15 09:37:29;;;;;;;692.37;640.13;;;21.00;1.00;;;;;;4988904;28;20188;-70
2023/05/15 09:39:55;;;;;;;671.23;625.60;;;20.80;1.00;;;;;;4988705;28;20191;-70
2023/05/15 09:42:23;;;;;;;735.40;679.60;;;20.90;1.00;;;;;;4987971;28;20439;-70
2023/05/15 09:44:49;;;;;;;620.40;581.80;;;21.20;1.00;;;;;;4988561;28;20462;-70
2023/05/15 09:47:17;;;;;;;742.87;687.90;;;20.90;1.00;;;;;;4988605;28;20428;-73
2023/05/15 09:49:44;;;;;;;740.37;686.33;;;20.70;1.00;;;;;;4992755;28;20630;-70
2023/05/15 09:52:09;;;;;;;713.70;661.67;;;20.70;1.00;;;;;;4992399;28;20420;-70
2023/05/15 09:54:36;;;;;;;622.10;580.70;;;20.40;1.00;;;;;;4991295;28;20523;-70
2023/05/15 09:57:10;;;;;;;642.90;599.13;;;20.50;1.00;;;;;;4991348;28;20197;-70
2023/05/15 09:59:41;;;;;;;599.50;559.93;;;20.60;1.00;;;;;;4991236;28;20803;-71
2023/05/15 10:02:07;;;;;;;645.80;601.30;;;20.80;1.00;;;;;;4992383;28;20418;-71
2023/05/15 10:04:35;;;;;;;702.70;652.67;;;20.60;1.00;;;;;;4992420;28;20459;-71
2023/05/15 10:07:01;;;;;;;536.43;503.53;;;20.80;1.00;;;;;;4992348;28;20176;-71
2023/05/15 10:09:30;;;;;;;909.10;833.47;;;20.80;1.00;;;;;;4992274;28;20404;-72
2023/05/15 10:11:57;;;;;;;766.87;709.73;;;20.90;1.00;;;;;;4992180;28;20219;-71
2023/05/15 10:14:25;;;;;;;747.57;690.83;;;21.20;1.00;;;;;;4992192;28;20804;-72
2023/05/15 10:16:51;;;;;;;658.83;613.67;;;21.30;1.00;;;;;;4992244;28;20530;-71
2023/05/15 10:19:21;;;;;;;798.83;735.70;;;21.00;1.00;;;;;;4984937;28;20980;-71
2023/05/15 10:21:47;;;;;;;851.83;783.23;;;21.00;1.00;;;;;;4987235;28;20432;-71
2023/05/15 10:24:17;;;;;;;682.43;632.13;;;20.90;1.00;;;;;;4971561;28;20483;-71
2023/05/15 10:26:43;;;;;;;726.20;673.07;;;20.80;1.00;;;;;;4972795;28;20468;-71
2023/05/15 10:29:20;;;;;;;695.53;647.07;;;20.60;1.00;;;;;;4987885;28;20451;-71
2023/05/15 10:31:47;;;;;;;635.50;592.40;;;20.00;1.00;;;;;;4971329;28;20177;-71
2023/05/15 10:34:14;;;;;;;654.30;609.33;;;19.50;1.00;;;;;;4973034;28;20445;-71
2023/05/15 10:36:41;;;;;;;711.23;659.83;;;19.20;1.00;;;;;;5014313;23;20544;-68
2023/05/15 10:39:07;;;;;;;735.53;681.30;;;18.10;1.00;;;;;;5008395;28;20487;-67
2023/05/15 10:41:36;;;;;;;679.70;631.70;;;17.20;1.00;;;;;;4993232;28;20408;-67
2023/05/15 10:44:02;;;;;;;660.03;614.00;;;16.30;3.90;;;;;;4992647;28;20490;-68
2023/05/15 10:46:30;;;;;;;565.33;530.90;;;15.60;3.40;;;;;;4992338;28;20943;-67
2023/05/15 10:48:57;;;;;;;626.30;584.33;;;15.20;6.20;;;;;;4992307;28;20415;-68
2023/05/15 10:51:26;;;;;;;603.03;559.83;;;15.10;4.20;;;;;;4992338;28;20554;-68
2023/05/15 10:53:52;;;;;;;608.87;569.77;;;15.00;6.90;;;;;;4991022;28;20446;-68
2023/05/15 10:56:18;;;;;;;729.60;676.87;;;15.10;4.80;;;;;;5003020;28;20451;-68
2023/05/15 10:58:48;;;;;;;806.30;746.17;;;15.20;8.20;;;;;;4993172;28;20559;-68
2023/05/15 11:01:31;;;;;;;866.67;801.00;;;15.50;8.90;;;;;;4996115;28;20667;-68
2023/05/15 11:04:11;;;;;;;793.83;733.23;;;15.90;9.30;;;;;;4995703;28;20482;-67
2023/05/15 11:06:45;;;;;;;715.07;662.40;;;16.20;7.90;;;;;;4995788;28;20427;-68
2023/05/15 11:09:20;;;;;;;770.93;713.07;;;16.70;8.60;;;;;;4996166;28;20407;-68
2023/05/15 11:11:59;;;;;;;737.53;684.20;;;17.20;7.50;;;;;;4995640;28;20920;-68
2023/05/15 11:14:25;;;;;;;793.40;734.77;;;18.00;4.00;;;;;;4995932;28;20424;-68
2023/05/15 11:16:54;;;;;;;803.10;744.90;;;18.60;2.30;;;;;;4995752;28;20436;-68
2023/05/15 11:19:36;;;;;;;669.07;621.27;;;19.10;2.00;;;;;;4995796;28;20527;-68
2023/05/15 11:22:22;;;;;;;713.87;664.30;;;19.10;2.60;;;;;;4995617;28;20423;-68
2023/05/15 11:24:49;;;;;;;751.73;694.93;;;19.80;3.30;;;;;;4988211;28;20464;-68
2023/05/15 11:27:20;;;;;;;749.77;695.93;;;20.50;1.00;;;;;;4995623;28;20825;-69
2023/05/15 11:30:10;;;;;;;832.50;768.57;;;20.60;1.00;;;;;;4995917;28;20467;-68
2023/05/15 11:33:01;;;;;;;802.50;742.70;;;20.70;1.00;;;;;;4995334;28;20423;-68
2023/05/15 11:35:32;;;;;;;706.20;653.63;;;20.90;1.00;;;;;;4995049;28;20443;-68
2023/05/15 11:38:02;;;;;;;640.20;597.23;;;21.00;1.00;;;;;;4995514;28;20412;-69
2023/05/15 11:40:30;;;;;;;598.83;558.07;;;21.30;1.00;;;;;;4995328;28;20444;-69
2023/05/15 11:42:59;;;;;;;638.73;596.13;;;21.10;1.00;;;;;;5012155;28;20422;-68
2023/05/15 11:45:27;;;;;;;701.53;650.47;;;21.30;1.00;;;;;;5014161;28;20557;-69
2023/05/15 11:47:52;;;;;;;801.13;737.07;;;20.70;1.00;;;;;;4998803;28;20414;-68
2023/05/15 11:50:19;;;;;;;789.37;729.97;;;21.00;1.00;;;;;;4993755;28;20914;-68
2023/05/15 11:52:45;;;;;;;596.30;554.83;;;21.20;1.00;;;;;;5006169;28;20521;-69
2023/05/15 11:55:11;;;;;;;784.80;722.37;;;21.10;1.00;;;;;;4991351;28;20467;-68
2023/05/15 11:57:37;;;;;;;769.30;710.53;;;21.10;1.00;;;;;;4991410;28;20511;-68
2023/05/15 12:00:05;;;;;;;669.90;621.40;;;21.00;1.00;;;;;;4994753;28;20588;-68
2023/05/15 12:02:30;;;;;;;651.33;603.13;;;21.20;1.00;;;;;;5007773;28;20764;-68
2023/05/15 12:04:56;;;;;;;700.13;649.77;;;21.10;1.00;;;;;;5013059;28;20481;-68
2023/05/15 12:07:21;;;;;;;788.63;724.60;;;21.20;1.00;;;;;;5013831;28;20187;-68
2023/05/15 12:09:54;;;;;;;650.30;604.33;;;20.90;1.00;;;;;;5013954;28;20176;-68
2023/05/15 12:12:19;;;;;;;658.47;613.90;;;20.70;1.00;;;;;;5012329;28;20180;-68
2023/05/15 12:14:45;;;;;;;637.37;595.33;;;20.40;1.00;;;;;;5014294;28;20920;-67
2023/05/15 12:17:11;;;;;;;814.50;753.93;;;20.20;1.00;;;;;;5014040;28;20283;-67
2023/05/15 12:19:37;;;;;;;822.60;749.17;;;20.20;1.00;;;;;;5014106;28;20179;-68